N2RF KASH-KCON
Flight info
| Callsign | N2RF |
|---|---|
| Flight time | N/A |
| Altitude | VFR/045 |
| Route | |
| Aircraft |
Departure
| Time | 2026-04-29 00:23 |
|---|---|
| Airport | Nashua Airport / Boire Field (KASH) |
Arrival
| Time | N/A |
|---|---|
| Airport | Concord Municipal Airport (KCON) |
| Time | Latitude | Longitude | Altitude | Speed | Heading |
|---|---|---|---|---|---|
| 2026-04-29 00:16 | 42.78261 | -71.51929 | 201 ft | 0 kts | 24° |
| 2026-04-29 00:18 | 42.78303 | -71.52010 | 201 ft | 19 kts | 305° |
| 2026-04-29 00:18 | 42.78380 | -71.52079 | 202 ft | 20 kts | 302° |
| 2026-04-29 00:19 | 42.78476 | -71.52284 | 208 ft | 31 kts | 304° |
| 2026-04-29 00:19 | 42.78619 | -71.52407 | 204 ft | 11 kts | 51° |
| 2026-04-29 00:19 | 42.78627 | -71.52394 | 204 ft | 0 kts | 50° |
| 2026-04-29 00:22 | 42.78662 | -71.52363 | 206 ft | 16 kts | 36° |
| 2026-04-29 00:22 | 42.78548 | -71.52054 | 208 ft | 71 kts | 123° |
| 2026-04-29 00:23 | 42.78229 | -71.51367 | 419 ft | 91 kts | 120° |
| 2026-04-29 00:23 | 42.77867 | -71.50588 | 710 ft | 101 kts | 116° |
| 2026-04-29 00:23 | 42.77538 | -71.49711 | 1109 ft | 104 kts | 113° |
| 2026-04-29 00:23 | 42.77261 | -71.48828 | 1570 ft | 104 kts | 115° |
| 2026-04-29 00:24 | 42.77026 | -71.47938 | 2061 ft | 97 kts | 128° |
| 2026-04-29 00:24 | 42.76352 | -71.47638 | 2409 ft | 115 kts | 187° |
| 2026-04-29 00:24 | 42.75718 | -71.48283 | 2886 ft | 115 kts | 231° |
| 2026-04-29 00:24 | 42.75324 | -71.49235 | 3338 ft | 116 kts | 240° |
| 2026-04-29 00:25 | 42.75046 | -71.50288 | 3700 ft | 122 kts | 255° |
| 2026-04-29 00:25 | 42.74893 | -71.51393 | 4141 ft | 119 kts | 265° |
| 2026-04-29 00:25 | 42.74909 | -71.52532 | 4540 ft | 121 kts | 275° |
| 2026-04-29 00:25 | 42.74999 | -71.53754 | 4727 ft | 138 kts | 275° |
| 2026-04-29 00:26 | 42.75106 | -71.55142 | 4790 ft | 155 kts | 277° |
| 2026-04-29 00:26 | 42.75287 | -71.56639 | 4858 ft | 164 kts | 282° |
| 2026-04-29 00:26 | 42.75566 | -71.58164 | 4918 ft | 168 kts | 286° |
| 2026-04-29 00:26 | 42.75927 | -71.59504 | 5438 ft | 148 kts | 297° |
| 2026-04-29 00:27 | 42.76490 | -71.60883 | 5097 ft | 178 kts | 299° |
| 2026-04-29 00:27 | 42.77251 | -71.62320 | 4645 ft | 199 kts | 311° |
| 2026-04-29 00:27 | 42.78243 | -71.63705 | 4357 ft | 203 kts | 317° |
| 2026-04-29 00:27 | 42.79269 | -71.65015 | 4154 ft | 202 kts | 319° |
| 2026-04-29 00:28 | 42.80351 | -71.66222 | 4129 ft | 192 kts | 324° |
| 2026-04-29 00:28 | 42.81406 | -71.67326 | 4148 ft | 190 kts | 321° |
| 2026-04-29 00:28 | 42.82397 | -71.68465 | 4110 ft | 191 kts | 323° |
| 2026-04-29 00:28 | 42.83360 | -71.69534 | 4302 ft | 181 kts | 323° |
| 2026-04-29 00:29 | 42.84346 | -71.70622 | 4249 ft | 185 kts | 321° |
| 2026-04-29 00:29 | 42.85340 | -71.71761 | 4287 ft | 181 kts | 319° |
| 2026-04-29 00:29 | 42.86330 | -71.72871 | 4138 ft | 190 kts | 321° |
| 2026-04-29 00:29 | 42.87340 | -71.74013 | 4025 ft | 194 kts | 322° |
| 2026-04-29 00:30 | 42.88330 | -71.75084 | 4359 ft | 173 kts | 323° |
| 2026-04-29 00:30 | 42.88964 | -71.75751 | 4285 ft | 173 kts | 321° |
| 2026-04-29 00:30 | 42.90276 | -71.77102 | 4429 ft | 176 kts | 326° |
| 2026-04-29 00:30 | 42.91308 | -71.77998 | 4527 ft | 174 kts | 327° |
| 2026-04-29 00:31 | 42.92330 | -71.78779 | 4752 ft | 168 kts | 330° |
| 2026-04-29 00:31 | 42.93426 | -71.79408 | 4670 ft | 178 kts | 347° |
| 2026-04-29 00:31 | 42.94673 | -71.79786 | 4602 ft | 182 kts | 345° |
| 2026-04-29 00:31 | 42.95912 | -71.80238 | 4515 ft | 186 kts | 345° |
| 2026-04-29 00:32 | 42.97123 | -71.80708 | 4743 ft | 174 kts | 342° |
| 2026-04-29 00:32 | 42.98285 | -71.81235 | 4757 ft | 177 kts | 342° |
| 2026-04-29 00:32 | 42.99467 | -71.81710 | 4736 ft | 182 kts | 342° |
| 2026-04-29 00:32 | 43.00669 | -71.82184 | 4725 ft | 183 kts | 343° |
| 2026-04-29 00:33 | 43.01883 | -71.82638 | 4792 ft | 180 kts | 344° |
| 2026-04-29 00:33 | 43.03092 | -71.83102 | 4866 ft | 178 kts | 343° |
| 2026-04-29 00:33 | 43.04309 | -71.83582 | 4967 ft | 167 kts | 343° |
| 2026-04-29 00:33 | 43.05442 | -71.84051 | 4648 ft | 194 kts | 340° |
| 2026-04-29 00:34 | 43.06761 | -71.84689 | 4310 ft | 203 kts | 343° |
| 2026-04-29 00:34 | 43.08093 | -71.85221 | 4205 ft | 199 kts | 342° |
| 2026-04-29 00:34 | 43.08628 | -71.85465 | 4374 ft | 180 kts | 343° |
| 2026-04-29 00:34 | 43.09495 | -71.85813 | 4592 ft | 175 kts | 345° |
| 2026-04-29 00:35 | 43.10747 | -71.86351 | 4280 ft | 192 kts | 338° |
| 2026-04-29 00:35 | 43.11975 | -71.86950 | 4299 ft | 190 kts | 340° |
| 2026-04-29 00:35 | 43.13252 | -71.87594 | 4061 ft | 198 kts | 340° |
| 2026-04-29 00:35 | 43.14521 | -71.88263 | 4068 ft | 192 kts | 341° |
| 2026-04-29 00:36 | 43.15816 | -71.88819 | 3928 ft | 196 kts | 345° |
| 2026-04-29 00:36 | 43.17111 | -71.89332 | 3865 ft | 195 kts | 348° |
| 2026-04-29 00:36 | 43.18406 | -71.89762 | 3873 ft | 192 kts | 349° |
| 2026-04-29 00:36 | 43.19675 | -71.90147 | 3852 ft | 192 kts | 348° |
| 2026-04-29 00:37 | 43.20977 | -71.90560 | 3872 ft | 189 kts | 352° |
| 2026-04-29 00:37 | 43.22274 | -71.90891 | 3872 ft | 189 kts | 349° |
| 2026-04-29 00:37 | 43.23533 | -71.91272 | 3996 ft | 182 kts | 351° |
| 2026-04-29 00:37 | 43.24835 | -71.91614 | 3787 ft | 193 kts | 350° |
| 2026-04-29 00:38 | 43.26167 | -71.91839 | 3670 ft | 193 kts | 3° |
| 2026-04-29 00:38 | 43.27497 | -71.91985 | 3658 ft | 193 kts | 344° |
| 2026-04-29 00:38 | 43.28719 | -71.92569 | 3876 ft | 181 kts | 344° |
| 2026-04-29 00:38 | 43.29896 | -71.93137 | 4008 ft | 178 kts | 340° |
| 2026-04-29 00:39 | 43.31025 | -71.93882 | 4079 ft | 181 kts | 333° |
| 2026-04-29 00:39 | 43.32156 | -71.94670 | 4120 ft | 183 kts | 334° |
| 2026-04-29 00:39 | 43.33297 | -71.95489 | 4035 ft | 194 kts | 330° |
| 2026-04-29 00:39 | 43.34434 | -71.96445 | 4075 ft | 192 kts | 326° |
| 2026-04-29 00:40 | 43.35530 | -71.97457 | 4128 ft | 191 kts | 327° |
| 2026-04-29 00:40 | 43.36634 | -71.98478 | 4133 ft | 191 kts | 325° |
| 2026-04-29 00:40 | 43.37711 | -71.99494 | 4193 ft | 189 kts | 325° |
| 2026-04-29 00:40 | 43.38811 | -72.00580 | 3951 ft | 201 kts | 324° |
| 2026-04-29 00:41 | 43.39914 | -72.01649 | 4215 ft | 183 kts | 325° |
| 2026-04-29 00:41 | 43.40604 | -72.02302 | 4274 ft | 183 kts | 324° |
| 2026-04-29 00:41 | 43.42012 | -72.03674 | 4354 ft | 181 kts | 322° |
| 2026-04-29 00:41 | 43.43040 | -72.04769 | 4144 ft | 194 kts | 321° |
| 2026-04-29 00:42 | 43.44100 | -72.05926 | 4108 ft | 193 kts | 320° |
| 2026-04-29 00:42 | 43.45123 | -72.07057 | 4264 ft | 187 kts | 319° |
| 2026-04-29 00:42 | 43.46113 | -72.08174 | 4368 ft | 182 kts | 319° |
| 2026-04-29 00:42 | 43.47111 | -72.09317 | 4340 ft | 186 kts | 319° |
| 2026-04-29 00:43 | 43.48102 | -72.10412 | 4358 ft | 188 kts | 319° |
| 2026-04-29 00:43 | 43.48630 | -72.11037 | 4257 ft | 194 kts | 314° |
| 2026-04-29 00:43 | 43.49350 | -72.11963 | 4210 ft | 197 kts | 319° |
| 2026-04-29 00:44 | 43.50455 | -72.13007 | 4369 ft | 187 kts | 323° |
| 2026-04-29 00:44 | 43.51520 | -72.14018 | 4365 ft | 192 kts | 320° |
| 2026-04-29 00:44 | 43.52247 | -72.14994 | 4562 ft | 182 kts | 309° |
| 2026-04-29 00:44 | 43.52265 | -72.15021 | 4566 ft | 182 kts | 309° |
| 2026-04-29 00:45 | 43.53058 | -72.16321 | 4713 ft | 182 kts | 305° |
| 2026-04-29 00:45 | 43.53889 | -72.17745 | 4343 ft | 203 kts | 304° |
| 2026-04-29 00:45 | 43.54767 | -72.19259 | 4134 ft | 207 kts | 307° |
| 2026-04-29 00:45 | 43.55676 | -72.20801 | 4034 ft | 204 kts | 306° |
| 2026-04-29 00:46 | 43.56516 | -72.22272 | 3865 ft | 207 kts | 304° |
| 2026-04-29 00:46 | 43.57411 | -72.23909 | 3528 ft | 214 kts | 306° |
| 2026-04-29 00:46 | 43.58373 | -72.25510 | 3113 ft | 219 kts | 310° |
| 2026-04-29 00:46 | 43.59314 | -72.27023 | 2168 ft | 174 kts | 309° |
| 2026-04-29 00:47 | 43.59952 | -72.28258 | 1508 ft | 145 kts | 305° |
| 2026-04-29 00:47 | 43.60457 | -72.29256 | 1145 ft | 116 kts | 308° |
| 2026-04-29 00:47 | 43.60978 | -72.30013 | 826 ft | 103 kts | 324° |
| 2026-04-29 00:47 | 43.61396 | -72.30274 | 664 ft | 97 kts | 345° |
| 2026-04-29 00:48 | 43.62077 | -72.30492 | 654 ft | 113 kts | 348° |
| 2026-04-29 00:48 | 43.62829 | -72.30698 | 1118 ft | 103 kts | 348° |
| 2026-04-29 00:48 | 43.63593 | -72.30886 | 1330 ft | 121 kts | 352° |
| 2026-04-29 00:48 | 43.64433 | -72.31174 | 1582 ft | 131 kts | 341° |
| 2026-04-29 00:49 | 43.65289 | -72.31685 | 1904 ft | 138 kts | 340° |
| 2026-04-29 00:49 | 43.66211 | -72.32201 | 2205 ft | 139 kts | 355° |
| 2026-04-29 00:49 | 43.67037 | -72.31829 | 2603 ft | 127 kts | 48° |
| 2026-04-29 00:49 | 43.67684 | -72.31067 | 3086 ft | 119 kts | 40° |
| 2026-04-29 00:50 | 43.68336 | -72.30246 | 3290 ft | 134 kts | 51° |
| 2026-04-29 00:50 | 43.69076 | -72.29533 | 3719 ft | 136 kts | 16° |
| 2026-04-29 00:50 | 43.69931 | -72.29019 | 4013 ft | 130 kts | 67° |
| 2026-04-29 00:50 | 43.69944 | -72.27855 | 4219 ft | 131 kts | 117° |
| 2026-04-29 00:51 | 43.69377 | -72.26790 | 4298 ft | 144 kts | 125° |
| 2026-04-29 00:51 | 43.68879 | -72.25763 | 4511 ft | 118 kts | 121° |
| 2026-04-29 00:51 | 43.68447 | -72.24783 | 4440 ft | 121 kts | 126° |
| 2026-04-29 00:51 | 43.67939 | -72.23770 | 4324 ft | 134 kts | 124° |
| 2026-04-29 00:52 | 43.67429 | -72.22804 | 4872 ft | 118 kts | 127° |
| 2026-04-29 00:52 | 43.66799 | -72.21952 | 5075 ft | 134 kts | 138° |
| 2026-04-29 00:52 | 43.66202 | -72.21147 | 5159 ft | 123 kts | 134° |
| 2026-04-29 00:52 | 43.65610 | -72.20165 | 5117 ft | 128 kts | 123° |
| 2026-04-29 00:53 | 43.65287 | -72.19025 | 5200 ft | 140 kts | 101° |
| 2026-04-29 00:53 | 43.64982 | -72.17672 | 5314 ft | 152 kts | 109° |
| 2026-04-29 00:53 | 43.64571 | -72.16233 | 5353 ft | 164 kts | 115° |
| 2026-04-29 00:53 | 43.64079 | -72.14731 | 5341 ft | 173 kts | 114° |
| 2026-04-29 00:54 | 43.63553 | -72.13236 | 5460 ft | 172 kts | 117° |
| 2026-04-29 00:54 | 43.62990 | -72.11799 | 5616 ft | 171 kts | 121° |
| 2026-04-29 00:54 | 43.62311 | -72.10381 | 5553 ft | 180 kts | 126° |
| 2026-04-29 00:54 | 43.61530 | -72.08995 | 5502 ft | 184 kts | 129° |
| 2026-04-29 00:55 | 43.60707 | -72.07597 | 5161 ft | 202 kts | 126° |
| 2026-04-29 00:55 | 43.59908 | -72.06038 | 5104 ft | 196 kts | 126° |
| 2026-04-29 00:55 | 43.59129 | -72.04498 | 5114 ft | 187 kts | 123° |
| 2026-04-29 00:55 | 43.58316 | -72.03108 | 5190 ft | 181 kts | 129° |
| 2026-04-29 00:56 | 43.57526 | -72.01839 | 5253 ft | 181 kts | 131° |
| 2026-04-29 00:56 | 43.56639 | -72.00478 | 4819 ft | 200 kts | 132° |
| 2026-04-29 00:56 | 43.55696 | -71.98979 | 4542 ft | 202 kts | 131° |
| 2026-04-29 00:56 | 43.54942 | -71.97776 | 5377 ft | 154 kts | 130° |
| 2026-04-29 00:57 | 43.54244 | -71.96637 | 5569 ft | 157 kts | 131° |
| 2026-04-29 00:57 | 43.53524 | -71.95506 | 5779 ft | 159 kts | 130° |
| 2026-04-29 00:57 | 43.52803 | -71.94343 | 5894 ft | 166 kts | 130° |
| 2026-04-29 00:57 | 43.52060 | -71.93143 | 6089 ft | 164 kts | 130° |
| 2026-04-29 00:58 | 43.51299 | -71.91800 | 5894 ft | 184 kts | 124° |
| 2026-04-29 00:58 | 43.50587 | -71.90310 | 5790 ft | 189 kts | 122° |
| 2026-04-29 00:58 | 43.49922 | -71.88807 | 5909 ft | 183 kts | 121° |
| 2026-04-29 00:58 | 43.49268 | -71.87305 | 5910 ft | 185 kts | 120° |
| 2026-04-29 00:59 | 43.48617 | -71.85733 | 5749 ft | 193 kts | 119° |
| 2026-04-29 00:59 | 43.47980 | -71.84088 | 5693 ft | 189 kts | 117° |
| 2026-04-29 00:59 | 43.47484 | -71.82524 | 5874 ft | 183 kts | 112° |
| 2026-04-29 00:59 | 43.46968 | -71.80819 | 5556 ft | 198 kts | 111° |
| 2026-04-29 01:00 | 43.46565 | -71.79346 | 5238 ft | 207 kts | 111° |
| 2026-04-29 01:00 | 43.46281 | -71.78352 | 5264 ft | 200 kts | 111° |
| 2026-04-29 01:01 | 43.45795 | -71.76639 | 5334 ft | 191 kts | 111° |
| 2026-04-29 01:01 | 43.45239 | -71.74933 | 5088 ft | 199 kts | 118° |
| 2026-04-29 01:01 | 43.44471 | -71.73371 | 4882 ft | 202 kts | 131° |
| 2026-04-29 01:01 | 43.43529 | -71.71927 | 4689 ft | 202 kts | 131° |
| 2026-04-29 01:02 | 43.42602 | -71.70535 | 4577 ft | 198 kts | 134° |
| 2026-04-29 01:02 | 43.41649 | -71.69236 | 4646 ft | 188 kts | 136° |
| 2026-04-29 01:02 | 43.40703 | -71.68033 | 4685 ft | 184 kts | 138° |
| 2026-04-29 01:02 | 43.39748 | -71.66885 | 4828 ft | 176 kts | 139° |
| 2026-04-29 01:03 | 43.38816 | -71.65798 | 4981 ft | 170 kts | 140° |
| 2026-04-29 01:03 | 43.37978 | -71.64763 | 5322 ft | 160 kts | 137° |
| 2026-04-29 01:03 | 43.37123 | -71.63729 | 5422 ft | 166 kts | 140° |
| 2026-04-29 01:03 | 43.36222 | -71.62703 | 5504 ft | 170 kts | 141° |
| 2026-04-29 01:04 | 43.35285 | -71.61666 | 5550 ft | 175 kts | 142° |
| 2026-04-29 01:04 | 43.34305 | -71.60645 | 5489 ft | 183 kts | 143° |
| 2026-04-29 01:04 | 43.33209 | -71.59546 | 5122 ft | 198 kts | 143° |
| 2026-04-29 01:04 | 43.32047 | -71.58419 | 4320 ft | 221 kts | 147° |
| 2026-04-29 01:05 | 43.30716 | -71.57325 | 3463 ft | 220 kts | 153° |
| 2026-04-29 01:05 | 43.29378 | -71.56401 | 2977 ft | 196 kts | 153° |
| 2026-04-29 01:05 | 43.28399 | -71.55691 | 2444 ft | 137 kts | 154° |
| 2026-04-29 01:05 | 43.27618 | -71.55154 | 2004 ft | 121 kts | 154° |
| 2026-04-29 01:06 | 43.26861 | -71.54676 | 1484 ft | 119 kts | 158° |
| 2026-04-29 01:06 | 43.26116 | -71.54255 | 1087 ft | 113 kts | 156° |
| 2026-04-29 01:06 | 43.25473 | -71.53805 | 910 ft | 99 kts | 149° |
| 2026-04-29 01:06 | 43.24887 | -71.53386 | 736 ft | 96 kts | 152° |
| 2026-04-29 01:07 | 43.24300 | -71.52979 | 640 ft | 94 kts | 151° |
| 2026-04-29 01:07 | 43.23706 | -71.52601 | 614 ft | 98 kts | 152° |
| 2026-04-29 01:07 | 43.23087 | -71.52180 | 674 ft | 103 kts | 154° |
| 2026-04-29 01:07 | 43.22413 | -71.51767 | 632 ft | 101 kts | 154° |
| 2026-04-29 01:08 | 43.21818 | -71.51401 | 491 ft | 88 kts | 155° |
| 2026-04-29 01:08 | 43.21281 | -71.51050 | 440 ft | 85 kts | 152° |
| 2026-04-29 01:08 | 43.20695 | -71.50685 | 357 ft | 97 kts | 154° |
| 2026-04-29 01:08 | 43.20067 | -71.50268 | 465 ft | 110 kts | 153° |
| 2026-04-29 01:09 | 43.19363 | -71.49868 | 843 ft | 111 kts | 154° |
| 2026-04-29 01:09 | 43.18650 | -71.49396 | 1199 ft | 115 kts | 150° |
| 2026-04-29 01:09 | 43.17933 | -71.48865 | 1528 ft | 118 kts | 151° |
| 2026-04-29 01:09 | 43.17217 | -71.48370 | 1969 ft | 112 kts | 143° |
| 2026-04-29 01:10 | 43.16561 | -71.47768 | 2286 ft | 114 kts | 146° |
| 2026-04-29 01:10 | 43.15770 | -71.47388 | 2420 ft | 135 kts | 163° |
| 2026-04-29 01:10 | 43.14810 | -71.47132 | 2540 ft | 143 kts | 165° |
| 2026-04-29 01:10 | 43.13804 | -71.46905 | 2670 ft | 150 kts | 167° |
| 2026-04-29 01:11 | 43.12752 | -71.46661 | 2732 ft | 157 kts | 167° |
| 2026-04-29 01:11 | 43.11897 | -71.46397 | 3526 ft | 120 kts | 160° |
| 2026-04-29 01:11 | 43.11006 | -71.46026 | 3629 ft | 136 kts | 160° |
| 2026-04-29 01:11 | 43.10118 | -71.45636 | 3952 ft | 135 kts | 159° |
| 2026-04-29 01:12 | 43.09245 | -71.45265 | 4311 ft | 131 kts | 160° |
| 2026-04-29 01:12 | 43.08328 | -71.45197 | 4581 ft | 138 kts | 180° |
| 2026-04-29 01:12 | 43.07321 | -71.45251 | 4772 ft | 146 kts | 180° |
| 2026-04-29 01:12 | 43.06271 | -71.45284 | 4798 ft | 161 kts | 179° |
| 2026-04-29 01:13 | 43.05132 | -71.45295 | 4880 ft | 166 kts | 180° |
| 2026-04-29 01:13 | 43.03946 | -71.45333 | 4858 ft | 175 kts | 180° |
| 2026-04-29 01:13 | 43.02723 | -71.45356 | 4914 ft | 175 kts | 180° |
| 2026-04-29 01:13 | 43.01411 | -71.45328 | 4458 ft | 195 kts | 175° |
| 2026-04-29 01:14 | 43.00088 | -71.45165 | 4408 ft | 190 kts | 173° |
| 2026-04-29 01:14 | 42.98777 | -71.45059 | 4379 ft | 186 kts | 176° |
| 2026-04-29 01:14 | 42.97498 | -71.45045 | 4406 ft | 182 kts | 178° |
| 2026-04-29 01:14 | 42.96251 | -71.45071 | 4426 ft | 181 kts | 181° |
| 2026-04-29 01:15 | 42.95014 | -71.45158 | 4546 ft | 174 kts | 180° |
| 2026-04-29 01:15 | 42.93791 | -71.45193 | 4571 ft | 176 kts | 178° |
| 2026-04-29 01:15 | 42.92566 | -71.45209 | 4583 ft | 179 kts | 180° |
| 2026-04-29 01:15 | 42.91353 | -71.45266 | 4719 ft | 173 kts | 180° |